Time;durP1;ratioP1;P1;durP2;ratioP2;P2;SDS_P1;SDS_P2;PMS_P1;PMS_P2;Temp;Humidity;BMP_temperature;BMP_pressure;BME280_temperature;BME280_humidity;BME280_pressure;Samples;Min_cycle;Max_cycle;Signal;HPM_P1;HPM_P2
2022/06/05 00:01:29;;;;;;;2.10;1.50;;;19.10;58.40;;;;;;5133181;27;20061;-72
2022/06/05 00:04:20;;;;;;;1.98;1.88;;;19.10;58.40;;;;;;5133218;27;20039;-72
2022/06/05 00:07:14;;;;;;;2.53;1.85;;;19.10;58.40;;;;;;5132994;27;20502;-72
2022/06/05 00:10:13;;;;;;;2.97;1.83;;;19.10;58.50;;;;;;5133041;27;20057;-72
2022/06/05 00:12:48;;;;;;;1.83;1.50;;;19.10;58.50;;;;;;5134238;27;20074;-72
2022/06/05 00:15:14;;;;;;;2.13;1.45;;;19.10;58.60;;;;;;5115683;27;20084;-72
2022/06/05 00:17:40;;;;;;;3.28;1.92;;;19.10;58.50;;;;;;5115662;27;20047;-72
2022/06/05 00:20:07;;;;;;;1.77;1.52;;;19.10;58.50;;;;;;5115672;27;20262;-72
2022/06/05 00:22:33;;;;;;;2.35;1.80;;;19.10;58.50;;;;;;5115793;27;20050;-72
2022/06/05 00:24:59;;;;;;;2.30;1.42;;;19.00;58.50;;;;;;5115534;27;20046;-72
2022/06/05 00:30:22;;;;;;;2.22;1.42;;;19.00;58.60;;;;;;5130278;27;20400;-72
2022/06/05 00:35:32;;;;;;;2.72;1.42;;;19.00;58.60;;;;;;5130178;27;20419;-71
2022/06/05 00:43:25;;;;;;;2.65;1.45;;;19.00;58.60;;;;;;5130128;27;20357;-72
2022/06/05 00:45:55;;;;;;;2.40;1.67;;;18.90;58.60;;;;;;5128898;28;20402;-71
2022/06/05 00:48:21;;;;;;;2.53;1.63;;;18.90;58.60;;;;;;5128983;28;20043;-72
2022/06/05 00:50:48;;;;;;;2.65;1.52;;;18.90;58.60;;;;;;5129054;27;20053;-72
2022/06/05 00:53:13;;;;;;;2.55;1.45;;;18.90;58.60;;;;;;5129123;27;20047;-72
2022/06/05 00:55:43;;;;;;;1.92;1.60;;;18.90;58.70;;;;;;5128708;28;20031;-72
2022/06/05 00:58:09;;;;;;;1.38;1.27;;;18.90;58.70;;;;;;5128744;28;20486;-72
2022/06/05 01:00:39;;;;;;;2.83;1.58;;;18.90;58.70;;;;;;5130181;27;20088;-72
2022/06/05 01:03:07;;;;;;;3.25;1.80;;;18.90;58.70;;;;;;5128639;28;20547;-72
2022/06/05 01:05:34;;;;;;;2.65;2.08;;;18.90;58.70;;;;;;5128803;27;20119;-72
2022/06/05 01:08:04;;;;;;;4.10;1.40;;;18.90;58.80;;;;;;5129950;27;20040;-72
2022/06/05 01:13:31;;;;;;;3.15;1.90;;;18.90;58.80;;;;;;5109798;27;20927;-72
2022/06/05 01:16:18;;;;;;;3.50;2.13;;;18.80;58.70;;;;;;5091436;28;20048;-70
2022/06/05 01:19:15;;;;;;;2.10;1.63;;;18.80;58.80;;;;;;5091419;28;20539;-67
2022/06/05 01:25:03;;;;;;;2.10;1.60;;;18.80;58.90;;;;;;5130360;27;20358;-72
2022/06/05 01:27:31;;;;;;;2.25;1.50;;;18.80;58.90;;;;;;5145982;27;20046;-72
2022/06/05 01:38:13;;;;;;;1.93;1.73;;;18.70;58.80;;;;;;5152879;27;1160926;-72
2022/06/05 01:40:45;;;;;;;3.00;2.03;;;18.70;58.80;;;;;;5153090;27;20368;-72
2022/06/05 01:43:19;;;;;;;2.97;1.75;;;18.70;58.90;;;;;;5153189;27;20393;-67
2022/06/05 01:48:33;;;;;;;2.15;1.73;;;18.70;58.90;;;;;;5089339;28;20397;-71
2022/06/05 01:51:06;;;;;;;2.55;1.70;;;18.70;58.90;;;;;;5089435;28;20388;-72
2022/06/05 01:56:21;;;;;;;2.63;1.85;;;18.70;58.90;;;;;;5109745;27;20384;-72
2022/06/05 01:58:53;;;;;;;3.13;2.10;;;18.70;58.90;;;;;;5109670;28;20040;-72
2022/06/05 02:01:23;;;;;;;3.22;1.83;;;18.70;58.90;;;;;;5091365;28;20119;-73
2022/06/05 02:04:00;;;;;;;3.45;1.48;;;18.70;59.00;;;;;;5092252;28;20036;-73
2022/06/05 02:06:37;;;;;;;3.63;1.90;;;18.70;59.00;;;;;;5092065;28;20143;-72
2022/06/05 02:09:11;;;;;;;3.25;1.63;;;18.70;59.00;;;;;;5091264;28;20039;-72
2022/06/05 02:11:36;;;;;;;2.47;2.28;;;18.70;59.00;;;;;;5091154;28;20036;-71
2022/06/05 02:14:07;;;;;;;2.10;1.50;;;18.60;58.90;;;;;;5109525;28;20572;-72
2022/06/05 02:16:36;;;;;;;3.17;2.10;;;18.60;58.90;;;;;;5091373;28;20078;-72
2022/06/05 02:19:05;;;;;;;2.22;1.77;;;18.60;58.90;;;;;;5091377;28;20044;-72
2022/06/05 02:21:33;;;;;;;2.03;1.38;;;18.70;59.00;;;;;;5109374;28;20035;-72
2022/06/05 02:23:58;;;;;;;2.30;1.90;;;18.70;59.00;;;;;;5109162;28;20479;-71
2022/06/05 02:26:27;;;;;;;2.45;1.80;;;18.60;58.90;;;;;;5090921;28;20051;-71
2022/06/05 02:28:53;;;;;;;2.83;1.98;;;18.60;58.90;;;;;;5090916;28;20050;-71
2022/06/05 02:40:28;;;;;;;1.90;1.77;;;18.60;59.00;;;;;;5130137;27;20415;-72
2022/06/05 02:43:19;;;;;;;4.05;2.13;;;18.60;59.00;;;;;;5128638;27;20043;-71
2022/06/05 02:45:59;;;;;;;2.83;2.08;;;18.60;59.00;;;;;;5129033;28;20043;-72
2022/06/05 02:49:04;;;;;;;2.15;1.88;;;18.50;59.00;;;;;;5130095;27;20483;-72
2022/06/05 02:51:34;;;;;;;2.28;1.50;;;18.60;59.10;;;;;;5128418;27;20057;-72
2022/06/05 02:54:00;;;;;;;2.20;2.00;;;18.50;59.00;;;;;;5128766;28;20043;-72
2022/06/05 02:56:28;;;;;;;2.65;2.00;;;18.50;59.00;;;;;;5128775;27;20096;-69
2022/06/05 02:58:57;;;;;;;2.83;2.42;;;18.50;59.10;;;;;;5129808;27;20126;-71
2022/06/05 03:04:09;;;;;;;2.47;2.28;;;18.60;59.00;;;;;;5128315;28;20047;-72
2022/06/05 03:06:36;;;;;;;2.53;2.15;;;18.50;59.00;;;;;;5128826;27;20039;-70
2022/06/05 03:09:03;;;;;;;1.73;1.63;;;18.60;59.00;;;;;;5128437;28;20059;-72
2022/06/05 03:11:29;;;;;;;3.45;1.98;;;18.50;59.00;;;;;;5128704;27;20047;-65
2022/06/05 03:13:57;;;;;;;2.90;2.10;;;18.50;59.10;;;;;;5129810;27;20043;-72
2022/06/05 03:16:23;;;;;;;3.10;2.20;;;18.50;59.00;;;;;;5128492;28;20486;-72
2022/06/05 03:18:49;;;;;;;2.50;2.10;;;18.50;59.10;;;;;;5128246;27;20443;-72
2022/06/05 03:21:15;;;;;;;3.90;2.28;;;18.50;59.00;;;;;;5129660;27;20066;-72
2022/06/05 03:23:40;;;;;;;2.92;1.63;;;18.50;59.10;;;;;;5128434;27;20398;-71
2022/06/05 03:26:09;;;;;;;3.97;2.33;;;18.50;59.10;;;;;;5128131;27;20046;-72
2022/06/05 03:28:35;;;;;;;4.32;2.20;;;18.50;59.20;;;;;;5128390;27;20099;-72
2022/06/05 03:31:04;;;;;;;2.58;1.92;;;18.50;59.10;;;;;;5127942;27;20443;-71
2022/06/05 03:33:33;;;;;;;4.00;2.92;;;18.40;59.10;;;;;;5128217;27;20054;-71
2022/06/05 03:35:59;;;;;;;3.05;2.05;;;18.40;59.10;;;;;;5129439;27;20092;-71
2022/06/05 03:38:25;;;;;;;4.22;2.55;;;18.50;59.10;;;;;;5127573;27;20499;-72
2022/06/05 03:40:51;;;;;;;2.90;2.15;;;18.50;59.20;;;;;;5129261;27;20105;-71
2022/06/05 03:43:17;;;;;;;4.82;2.08;;;18.50;59.20;;;;;;5129046;28;20073;-72
2022/06/05 03:45:46;;;;;;;2.83;2.22;;;18.50;59.20;;;;;;5127948;28;20054;-72
2022/06/05 03:48:12;;;;;;;2.28;2.08;;;18.50;59.20;;;;;;5128957;28;20040;-72
2022/06/05 03:50:39;;;;;;;1.90;1.80;;;18.50;59.20;;;;;;5116676;28;20039;-72
2022/06/05 03:53:06;;;;;;;3.85;2.05;;;18.50;59.20;;;;;;5114262;28;20043;-72
2022/06/05 03:55:32;;;;;;;2.50;2.30;;;18.40;59.20;;;;;;5115070;28;20035;-70
2022/06/05 03:57:58;;;;;;;2.53;2.15;;;18.50;59.20;;;;;;5113852;28;20486;-66
2022/06/05 04:00:24;;;;;;;4.00;2.42;;;18.50;59.20;;;;;;5113852;28;20035;-71
2022/06/05 04:02:50;;;;;;;3.60;2.13;;;18.40;59.10;;;;;;5114914;28;20110;-71
2022/06/05 04:05:19;;;;;;;2.25;2.03;;;18.40;59.10;;;;;;5113685;28;20044;-72
2022/06/05 04:07:45;;;;;;;3.80;2.50;;;18.50;59.20;;;;;;5113871;28;20039;-70
2022/06/05 04:10:13;;;;;;;3.72;2.28;;;18.50;59.20;;;;;;5113612;28;20058;-72
2022/06/05 04:12:38;;;;;;;3.45;2.75;;;18.40;59.10;;;;;;5113595;28;20082;-72
2022/06/05 04:15:05;;;;;;;3.13;2.13;;;18.40;59.10;;;;;;5113517;28;20074;-72
2022/06/05 04:17:31;;;;;;;2.78;2.35;;;18.40;59.10;;;;;;5113327;28;20126;-72
2022/06/05 04:19:56;;;;;;;3.38;2.05;;;18.40;59.10;;;;;;5113457;28;20114;-72
2022/06/05 04:22:25;;;;;;;2.92;2.13;;;18.40;59.10;;;;;;5113328;28;20047;-72
2022/06/05 04:24:51;;;;;;;2.13;1.90;;;18.40;59.20;;;;;;5114724;28;20035;-72
2022/06/05 04:27:16;;;;;;;2.53;2.30;;;18.40;59.10;;;;;;5114622;28;20432;-72
2022/06/05 04:29:42;;;;;;;3.75;2.65;;;18.40;59.10;;;;;;5114533;28;20160;-72
2022/06/05 04:32:08;;;;;;;3.00;2.22;;;18.40;59.10;;;;;;5113445;28;20096;-70
2022/06/05 04:34:35;;;;;;;5.15;2.85;;;18.40;59.10;;;;;;5113223;28;20047;-71
2022/06/05 04:37:00;;;;;;;3.15;2.85;;;18.50;59.10;;;;;;5113123;28;20051;-72
2022/06/05 04:39:26;;;;;;;2.90;2.53;;;18.50;59.10;;;;;;5112760;28;20058;-71
2022/06/05 04:41:52;;;;;;;2.25;1.95;;;18.50;59.10;;;;;;5114582;28;20119;-72
2022/06/05 04:44:18;;;;;;;2.53;2.03;;;18.50;59.20;;;;;;5112810;28;20039;-72
2022/06/05 04:46:45;;;;;;;3.05;2.47;;;18.50;59.10;;;;;;5112899;28;20067;-71
2022/06/05 04:49:13;;;;;;;2.95;2.22;;;18.50;59.20;;;;;;5112761;28;20100;-72
2022/06/05 04:51:42;;;;;;;2.60;2.00;;;18.50;59.20;;;;;;5112796;28;20118;-72
2022/06/05 04:54:10;;;;;;;3.97;2.30;;;18.50;59.20;;;;;;5114082;28;20054;-72
2022/06/05 04:56:36;;;;;;;2.72;2.53;;;18.50;59.20;;;;;;5114079;28;20115;-72
2022/06/05 04:59:03;;;;;;;2.38;2.17;;;18.50;59.20;;;;;;5114147;28;20043;-72
2022/06/05 05:01:31;;;;;;;3.55;2.50;;;18.50;59.20;;;;;;5113337;28;20468;-72
2022/06/05 05:04:00;;;;;;;2.90;2.70;;;18.50;59.20;;;;;;5113737;28;20047;-72
2022/06/05 05:06:26;;;;;;;3.85;3.15;;;18.50;59.20;;;;;;5112619;28;20471;-72
2022/06/05 05:08:52;;;;;;;2.72;2.45;;;18.50;59.20;;;;;;5112378;28;20044;-70
2022/06/05 05:11:18;;;;;;;3.47;2.30;;;18.50;59.10;;;;;;5112443;28;20051;-72
2022/06/05 05:13:44;;;;;;;2.60;2.33;;;18.50;59.20;;;;;;5112505;28;20074;-72
2022/06/05 05:16:10;;;;;;;2.45;2.25;;;18.50;59.20;;;;;;5113665;28;20492;-72
2022/06/05 05:18:44;;;;;;;2.60;2.28;;;18.50;59.20;;;;;;5112165;28;20493;-72
2022/06/05 05:21:13;;;;;;;3.05;2.30;;;18.50;59.20;;;;;;5112695;28;20035;-72
2022/06/05 05:23:42;;;;;;;3.13;2.53;;;18.50;59.20;;;;;;5112047;28;20471;-73
2022/06/05 05:26:12;;;;;;;3.05;2.70;;;18.50;59.20;;;;;;5113439;28;20039;-72
2022/06/05 05:28:39;;;;;;;3.30;2.50;;;18.50;59.20;;;;;;5113279;28;20040;-72
2022/06/05 05:31:09;;;;;;;3.05;2.83;;;18.50;59.20;;;;;;5112182;28;20052;-72
2022/06/05 05:33:34;;;;;;;3.38;2.80;;;18.60;59.20;;;;;;5111929;28;20054;-71
2022/06/05 05:36:00;;;;;;;2.35;2.15;;;18.50;59.20;;;;;;5111878;28;20118;-71
2022/06/05 05:38:25;;;;;;;3.25;2.95;;;18.60;59.20;;;;;;5111574;28;20105;-71
2022/06/05 05:43:37;;;;;;;3.22;2.90;;;18.60;59.20;;;;;;5111524;28;20140;-71
2022/06/05 05:46:06;;;;;;;3.05;2.75;;;18.60;59.20;;;;;;5111938;28;20098;-72
2022/06/05 05:48:32;;;;;;;3.07;2.30;;;18.50;59.10;;;;;;5112078;28;20048;-71
2022/06/05 05:50:57;;;;;;;3.25;2.95;;;18.60;59.20;;;;;;5113020;28;20342;-71
2022/06/05 05:53:23;;;;;;;3.08;2.83;;;18.60;59.20;;;;;;5111903;28;20482;-72
2022/06/05 05:55:51;;;;;;;3.30;2.92;;;18.60;59.10;;;;;;5111716;28;20031;-71
2022/06/05 05:58:17;;;;;;;2.50;2.17;;;18.60;59.10;;;;;;5112849;28;20070;-71
2022/06/05 06:00:46;;;;;;;3.10;2.90;;;18.60;59.10;;;;;;5111397;28;20040;-71
2022/06/05 06:03:11;;;;;;;3.10;2.88;;;18.70;59.10;;;;;;5111317;28;20444;-70
2022/06/05 06:05:37;;;;;;;2.75;2.55;;;18.70;59.10;;;;;;5111393;28;20043;-72
2022/06/05 06:08:03;;;;;;;3.15;2.55;;;18.70;59.00;;;;;;5111347;28;20043;-70
2022/06/05 06:10:29;;;;;;;2.97;2.67;;;18.70;59.00;;;;;;5111248;28;20104;-72
2022/06/05 06:12:57;;;;;;;3.20;2.90;;;18.70;59.00;;;;;;5111087;28;20043;-71
2022/06/05 06:15:25;;;;;;;4.40;2.97;;;18.70;59.00;;;;;;5112394;28;20085;-71
2022/06/05 06:17:51;;;;;;;3.10;2.55;;;18.70;59.00;;;;;;5111644;28;20415;-72
2022/06/05 06:20:17;;;;;;;2.85;2.65;;;18.70;59.00;;;;;;5111230;28;20032;-71
2022/06/05 06:22:42;;;;;;;4.35;3.03;;;18.70;58.90;;;;;;5111204;28;20047;-71
2022/06/05 06:25:09;;;;;;;3.42;2.55;;;18.80;58.90;;;;;;5111516;28;20062;-72
2022/06/05 06:27:34;;;;;;;4.50;2.85;;;18.80;58.80;;;;;;5111327;28;20040;-70
2022/06/05 06:30:00;;;;;;;2.88;2.58;;;18.80;58.80;;;;;;5111378;28;20207;-72
2022/06/05 06:32:26;;;;;;;3.15;2.50;;;18.80;58.70;;;;;;5111292;28;20032;-71
2022/06/05 06:34:51;;;;;;;3.08;2.85;;;18.80;58.70;;;;;;5111256;28;20039;-72
2022/06/05 06:37:17;;;;;;;4.65;3.10;;;18.90;58.80;;;;;;5112324;28;20028;-71
2022/06/05 06:39:43;;;;;;;3.38;3.08;;;18.90;58.70;;;;;;5111984;28;20391;-72
2022/06/05 06:42:08;;;;;;;3.25;2.80;;;18.90;58.70;;;;;;5111199;28;20048;-71
2022/06/05 06:44:34;;;;;;;2.80;2.60;;;18.90;58.70;;;;;;5110780;28;20039;-72
2022/06/05 06:47:00;;;;;;;2.92;2.70;;;18.90;58.70;;;;;;5112209;28;20059;-72
2022/06/05 06:49:25;;;;;;;3.08;2.88;;;19.00;58.70;;;;;;5111212;28;20051;-71
2022/06/05 06:51:51;;;;;;;3.47;3.05;;;19.00;58.70;;;;;;5111085;28;20061;-72
2022/06/05 06:54:17;;;;;;;3.42;3.03;;;19.00;58.70;;;;;;5111215;28;20435;-72
2022/06/05 06:56:44;;;;;;;3.55;3.25;;;19.00;58.70;;;;;;5112050;28;20506;-72
2022/06/05 06:59:09;;;;;;;3.08;2.83;;;19.00;58.60;;;;;;5112146;28;20049;-71
2022/06/05 07:01:35;;;;;;;2.97;2.60;;;19.10;58.60;;;;;;5111950;28;20106;-71
2022/06/05 07:04:00;;;;;;;3.53;2.47;;;19.10;58.50;;;;;;5111075;28;20036;-71
2022/06/05 07:06:26;;;;;;;3.20;2.80;;;19.10;58.50;;;;;;5110706;28;20548;-72
2022/06/05 07:08:52;;;;;;;2.83;2.50;;;19.20;58.40;;;;;;5110914;28;20031;-72
2022/06/05 07:11:18;;;;;;;4.13;3.65;;;19.20;58.40;;;;;;5111025;28;20047;-72
2022/06/05 07:13:48;;;;;;;3.85;2.80;;;19.20;58.40;;;;;;5110914;28;20031;-71
2022/06/05 07:16:14;;;;;;;3.22;2.55;;;19.30;58.30;;;;;;5110695;28;20073;-72
2022/06/05 07:18:41;;;;;;;3.35;3.08;;;19.30;58.20;;;;;;5110578;28;20043;-72
2022/06/05 07:21:10;;;;;;;2.55;2.28;;;19.30;58.00;;;;;;5110663;28;20116;-72
2022/06/05 07:23:36;;;;;;;3.20;2.90;;;19.40;58.10;;;;;;5110539;28;20035;-72
2022/06/05 07:26:02;;;;;;;4.05;3.08;;;19.40;58.00;;;;;;5113599;28;20049;-72
2022/06/05 07:28:27;;;;;;;3.60;3.25;;;19.50;58.00;;;;;;5114423;28;20092;-72
2022/06/05 07:30:53;;;;;;;4.47;3.20;;;19.50;58.10;;;;;;5114602;28;20047;-71
2022/06/05 07:33:19;;;;;;;2.78;2.58;;;19.50;58.00;;;;;;5114336;28;20399;-72
2022/06/05 07:35:44;;;;;;;3.15;2.85;;;19.50;57.90;;;;;;5114599;28;20078;-72
2022/06/05 07:38:11;;;;;;;3.08;2.78;;;19.50;57.90;;;;;;5114229;28;20036;-69
2022/06/05 07:40:39;;;;;;;3.45;3.20;;;19.60;57.90;;;;;;5114439;28;20058;-72
2022/06/05 07:43:05;;;;;;;3.15;2.85;;;19.60;57.80;;;;;;5115440;28;20036;-71
2022/06/05 07:45:33;;;;;;;3.90;2.95;;;19.60;57.80;;;;;;5115360;28;20096;-71
2022/06/05 07:47:58;;;;;;;3.15;2.88;;;19.70;57.90;;;;;;5114335;28;20067;-71
2022/06/05 07:50:24;;;;;;;3.28;2.97;;;19.70;57.80;;;;;;5114089;28;20618;-72
2022/06/05 07:55:35;;;;;;;3.35;3.05;;;19.70;57.90;;;;;;5114038;28;20081;-71
2022/06/05 07:58:01;;;;;;;4.20;3.80;;;19.80;57.90;;;;;;5113800;28;20043;-71
2022/06/05 08:00:27;;;;;;;4.22;3.55;;;19.90;58.90;;;;;;5115073;28;20044;-71
2022/06/05 08:02:52;;;;;;;3.22;3.03;;;19.80;58.20;;;;;;5113787;28;20039;-72
2022/06/05 08:05:18;;;;;;;3.30;2.97;;;19.90;58.00;;;;;;5113764;28;20040;-71
2022/06/05 08:07:44;;;;;;;3.58;3.15;;;19.80;57.70;;;;;;5114976;28;20093;-71
2022/06/05 08:10:10;;;;;;;2.67;2.47;;;19.90;57.70;;;;;;5114950;28;20387;-72
2022/06/05 08:12:36;;;;;;;2.97;2.67;;;19.90;57.50;;;;;;5114981;28;20168;-72
2022/06/05 08:15:08;;;;;;;2.88;2.60;;;19.90;57.40;;;;;;5113508;28;20036;-72
2022/06/05 08:17:35;;;;;;;3.80;3.40;;;20.00;57.50;;;;;;5114959;28;20114;-72
2022/06/05 08:20:03;;;;;;;3.55;3.25;;;20.00;57.50;;;;;;5113432;28;20048;-72
2022/06/05 08:22:29;;;;;;;3.30;2.95;;;20.00;57.40;;;;;;5113481;28;20040;-71
2022/06/05 08:24:55;;;;;;;4.38;3.20;;;20.00;57.40;;;;;;5113563;28;20050;-72
2022/06/05 08:27:23;;;;;;;3.00;2.80;;;20.10;57.40;;;;;;5114580;28;20482;-71
2022/06/05 08:29:51;;;;;;;3.13;2.83;;;20.10;57.30;;;;;;5113465;28;20039;-71
2022/06/05 08:32:17;;;;;;;2.80;2.60;;;20.10;57.10;;;;;;5113376;28;20331;-72
2022/06/05 08:34:44;;;;;;;4.75;3.03;;;20.20;57.10;;;;;;5114416;28;20036;-71
2022/06/05 08:43:20;;;;;;;5.22;3.10;;;20.30;56.80;;;;;;5114057;28;20407;-72
2022/06/05 08:48:32;;;;;;;2.67;2.47;;;20.30;57.00;;;;;;5130232;27;20403;-72
2022/06/05 08:51:25;;;;;;;3.20;2.65;;;20.40;56.70;;;;;;5128911;28;20051;-71
2022/06/05 08:56:37;;;;;;;2.55;2.35;;;20.40;56.60;;;;;;5130082;27;20403;-71
2022/06/05 08:59:12;;;;;;;2.90;2.40;;;20.60;56.30;;;;;;5129138;27;20043;-72
2022/06/05 09:07:09;;;;;;;4.60;2.70;;;20.70;56.00;;;;;;5130176;27;20414;-73
2022/06/05 09:09:43;;;;;;;2.88;2.60;;;20.80;56.00;;;;;;5128904;28;20096;-72
2022/06/05 09:15:00;;;;;;;2.85;2.50;;;20.70;56.00;;;;;;5130270;27;20422;-72
2022/06/05 09:17:27;;;;;;;2.88;2.50;;;20.80;56.00;;;;;;5128935;27;20092;-71
2022/06/05 09:19:56;;;;;;;3.03;2.83;;;20.70;55.90;;;;;;5129073;27;20082;-71
2022/06/05 09:25:47;;;;;;;4.20;2.40;;;20.70;56.10;;;;;;5110067;27;20453;-72
2022/06/05 09:33:48;;;;;;;3.05;2.72;;;20.70;56.60;;;;;;5130311;27;20423;-71
2022/06/05 09:36:18;;;;;;;3.28;2.92;;;20.60;56.60;;;;;;5128968;28;20078;-72
2022/06/05 09:38:54;;;;;;;3.38;3.05;;;20.60;56.80;;;;;;5129195;28;20039;-72
2022/06/05 09:44:37;;;;;;;3.13;2.80;;;20.60;57.40;;;;;;5110006;27;20048;-71
2022/06/05 09:47:13;;;;;;;2.80;2.60;;;20.60;56.90;;;;;;5091177;28;20064;-72
2022/06/05 09:49:44;;;;;;;3.08;2.78;;;20.60;57.00;;;;;;5091692;28;20043;-72
2022/06/05 10:03:14;;;;;;;3.25;2.67;;;20.50;57.40;;;;;;5130284;27;20415;-72
2022/06/05 10:05:46;;;;;;;3.35;3.03;;;20.50;57.50;;;;;;5129020;28;20043;-72
2022/06/05 10:10:57;;;;;;;2.97;2.78;;;20.50;57.50;;;;;;5130267;27;20383;-72
2022/06/05 10:13:50;;;;;;;2.78;2.58;;;20.50;57.80;;;;;;5147512;27;20554;-73
2022/06/05 10:16:34;;;;;;;3.20;2.90;;;20.50;57.80;;;;;;5130548;27;20502;-72
2022/06/05 10:19:25;;;;;;;3.47;3.00;;;20.50;57.80;;;;;;5130129;27;20394;-72
2022/06/05 10:22:04;;;;;;;3.17;2.97;;;20.50;57.80;;;;;;5128636;27;20065;-72
2022/06/05 10:27:50;;;;;;;3.45;3.20;;;20.50;57.90;;;;;;5130148;27;20506;-71
2022/06/05 10:30:18;;;;;;;3.42;2.65;;;20.50;57.90;;;;;;5129408;27;20083;-72
2022/06/05 10:35:38;;;;;;;3.50;3.20;;;20.50;58.10;;;;;;5130190;27;20770;-72
2022/06/05 10:41:14;;;;;;;3.10;2.90;;;20.50;58.30;;;;;;5089472;27;20755;-72
2022/06/05 10:43:40;;;;;;;3.25;2.80;;;20.50;58.20;;;;;;5105333;28;20048;-66
2022/06/05 10:46:18;;;;;;;3.45;3.25;;;20.50;58.20;;;;;;5087987;28;20040;-72
2022/06/05 10:49:07;;;;;;;3.97;3.10;;;20.60;58.40;;;;;;5088072;28;20101;-72
2022/06/05 10:51:39;;;;;;;3.80;3.30;;;20.60;58.40;;;;;;5088002;28;20154;-72
2022/06/05 10:57:12;;;;;;;3.67;3.38;;;20.60;58.30;;;;;;5150834;27;20103;-71
2022/06/05 11:00:02;;;;;;;3.83;3.47;;;20.50;58.50;;;;;;5128887;28;20075;-72
2022/06/05 11:02:41;;;;;;;3.10;2.90;;;20.50;58.50;;;;;;5129226;28;20051;-67
2022/06/05 11:08:27;;;;;;;3.40;3.10;;;20.50;58.50;;;;;;5152735;27;1174664;-71
2022/06/05 11:14:00;;;;;;;3.17;2.97;;;20.50;58.70;;;;;;5151763;27;1194701;-70
2022/06/05 11:16:33;;;;;;;3.38;3.03;;;20.50;58.70;;;;;;5172069;27;20081;-71
2022/06/05 11:21:42;;;;;;;4.13;3.78;;;20.60;58.90;;;;;;5130221;27;20411;-67
2022/06/05 11:24:19;;;;;;;3.60;3.13;;;20.40;58.90;;;;;;5129119;28;20528;-72
2022/06/05 11:29:51;;;;;;;3.83;3.50;;;20.50;59.10;;;;;;5130375;27;20942;-71
2022/06/05 11:41:06;;;;;;;3.42;3.13;;;20.50;59.20;;;;;;5130856;27;20353;-71
2022/06/05 11:43:38;;;;;;;3.80;3.42;;;20.50;59.10;;;;;;5128982;28;20050;-72
2022/06/05 11:46:41;;;;;;;3.90;3.38;;;20.50;59.20;;;;;;5128808;28;20039;-71
2022/06/05 11:49:35;;;;;;;3.70;3.40;;;20.50;59.20;;;;;;5128721;28;20043;-72
2022/06/05 11:58:06;;;;;;;3.75;3.45;;;20.60;59.30;;;;;;5130465;27;20100;-71
2022/06/05 12:00:37;;;;;;;3.78;3.47;;;20.50;59.30;;;;;;5130493;27;20070;-72
2022/06/05 12:08:40;;;;;;;4.35;3.40;;;20.60;59.40;;;;;;5150994;27;20439;-71
2022/06/05 12:11:13;;;;;;;4.07;3.78;;;20.60;59.50;;;;;;5128769;28;20043;-71
2022/06/05 12:28:11;;;;;;;4.15;3.85;;;20.60;59.50;;;;;;5151002;27;20307;-70
2022/06/05 12:30:42;;;;;;;3.90;3.55;;;20.60;60.30;;;;;;5130372;27;20468;-71
2022/06/05 12:36:13;;;;;;;4.53;3.97;;;20.60;59.60;;;;;;5130236;27;20354;-66
2022/06/05 12:38:58;;;;;;;;;;;20.60;59.60;;;;;;5129685;28;20441;-66
2022/06/05 12:41:42;;;;;;;3.92;3.60;;;20.60;59.40;;;;;;5128779;28;19915;-71
2022/06/05 12:55:44;;;;;;;4.28;3.63;;;20.60;59.60;;;;;;5130252;27;20134;-72
2022/06/05 13:00:57;;;;;;;3.67;3.42;;;20.70;59.60;;;;;;5152629;27;1172153;-71
2022/06/05 13:06:11;;;;;;;3.90;3.60;;;20.70;59.70;;;;;;5130266;27;20763;-71
2022/06/05 13:11:43;;;;;;;3.78;3.47;;;20.70;59.60;;;;;;5130208;27;20876;-71
2022/06/05 13:14:28;;;;;;;4.18;3.83;;;20.70;59.60;;;;;;5128904;28;20050;-70
2022/06/05 13:25:17;;;;;;;3.80;3.50;;;20.80;59.50;;;;;;5152411;27;1177403;-71
2022/06/05 13:30:28;;;;;;;3.72;3.42;;;20.80;59.40;;;;;;5130197;27;20366;-71
2022/06/05 13:41:11;;;;;;;3.97;3.75;;;20.80;59.50;;;;;;5130297;27;20452;-72
2022/06/05 13:43:40;;;;;;;3.42;3.22;;;20.90;59.50;;;;;;5128949;27;20047;-72
2022/06/05 13:51:36;;;;;;;4.00;3.60;;;20.90;59.60;;;;;;5130196;27;20418;-72
2022/06/05 13:56:54;;;;;;;3.83;3.63;;;20.90;59.60;;;;;;5130171;27;20407;-68
2022/06/05 13:59:29;;;;;;;3.95;3.65;;;20.90;59.70;;;;;;5129109;27;20051;-71
2022/06/05 14:02:08;;;;;;;4.75;4.30;;;20.90;59.70;;;;;;5129236;28;20607;-71
2022/06/05 14:04:52;;;;;;;4.00;3.70;;;20.80;59.80;;;;;;5128830;28;20040;-71
2022/06/05 14:07:19;;;;;;;4.20;3.90;;;20.80;59.80;;;;;;5146027;27;20483;-72
2022/06/05 14:09:48;;;;;;;3.53;3.20;;;20.80;59.80;;;;;;5128722;27;20545;-71
2022/06/05 14:15:23;;;;;;;4.68;3.90;;;20.80;59.90;;;;;;5089429;28;20385;-71
2022/06/05 14:17:49;;;;;;;3.72;3.53;;;20.80;60.00;;;;;;5088355;28;20067;-72
2022/06/05 14:22:57;;;;;;;4.13;3.83;;;20.80;60.00;;;;;;5130286;27;20378;-72
2022/06/05 14:28:08;;;;;;;4.05;3.75;;;20.80;60.10;;;;;;5130154;27;20354;-71
2022/06/05 14:30:57;;;;;;;4.22;3.92;;;20.80;60.10;;;;;;5146200;27;20055;-71
2022/06/05 14:33:31;;;;;;;3.83;3.53;;;20.90;60.10;;;;;;5128910;28;20068;-71
2022/06/05 14:35:58;;;;;;;4.00;3.70;;;20.80;60.00;;;;;;5130276;27;20047;-71
2022/06/05 14:38:50;;;;;;;4.78;4.20;;;20.80;60.00;;;;;;5129066;28;20035;-71
2022/06/05 14:41:19;;;;;;;4.43;4.13;;;20.80;60.10;;;;;;5112084;28;20463;-72
2022/06/05 14:57:52;;;;;;;5.10;4.70;;;20.80;60.40;;;;;;5128783;27;20051;-72
2022/06/05 15:00:25;;;;;;;4.63;4.22;;;20.80;60.40;;;;;;5129123;27;20032;-72
2022/06/05 15:05:46;;;;;;;4.07;3.78;;;20.80;60.40;;;;;;5151453;27;1167712;-72
2022/06/05 15:11:09;;;;;;;4.50;4.20;;;20.90;60.80;;;;;;5153303;27;1153463;-71
2022/06/05 15:13:43;;;;;;;4.47;3.90;;;20.90;60.80;;;;;;5170875;27;20081;-72
2022/06/05 15:18:50;;;;;;;6.18;4.65;;;20.90;60.60;;;;;;5129225;27;20386;-71
2022/06/05 15:24:37;;;;;;;14.75;5.85;;;20.90;60.40;;;;;;5130497;27;20514;-71
2022/06/05 15:32:53;;;;;;;11.57;6.35;;;20.90;60.70;;;;;;5130309;27;20144;-68
2022/06/05 15:41:01;;;;;;;9.82;6.15;;;20.80;61.40;;;;;;5130416;27;20407;-70
2022/06/05 15:52:09;;;;;;;9.82;5.82;;;20.80;62.00;;;;;;5133667;27;1160875;-72
2022/06/05 16:00:10;;;;;;;7.15;4.70;;;20.80;63.00;;;;;;5130166;27;20383;-66
2022/06/05 16:02:37;;;;;;;6.05;4.15;;;20.70;64.40;;;;;;5130206;27;20031;-72
2022/06/05 16:05:13;;;;;;;4.30;3.70;;;20.70;64.60;;;;;;5130185;27;20453;-72
2022/06/05 16:07:42;;;;;;;4.20;3.60;;;20.70;65.00;;;;;;5129140;28;20071;-71
2022/06/05 16:10:30;;;;;;;3.92;2.92;;;20.70;65.50;;;;;;5129024;28;20081;-72
2022/06/05 16:12:57;;;;;;;3.05;2.63;;;20.70;65.70;;;;;;5128671;28;20498;-72
2022/06/05 16:15:48;;;;;;;3.42;3.13;;;20.60;65.70;;;;;;5128948;28;20077;-71
2022/06/05 16:21:37;;;;;;;3.47;2.53;;;20.60;65.80;;;;;;5130466;27;20382;-70
2022/06/05 16:24:16;;;;;;;3.30;2.30;;;20.60;66.40;;;;;;5128787;28;20105;-67
2022/06/05 16:29:49;;;;;;;2.22;1.80;;;20.50;66.80;;;;;;5130003;27;20132;-68
2022/06/05 16:38:14;;;;;;;3.03;2.22;;;20.50;66.70;;;;;;5130353;27;20927;-70
2022/06/05 16:40:40;;;;;;;2.42;2.22;;;20.50;66.30;;;;;;5128893;28;20490;-69
2022/06/05 16:43:16;;;;;;;3.33;2.30;;;20.40;66.10;;;;;;5129056;28;20079;-70
2022/06/05 16:45:51;;;;;;;3.00;2.70;;;20.40;66.00;;;;;;5128765;28;20047;-69
2022/06/05 16:48:20;;;;;;;3.05;2.83;;;20.40;65.90;;;;;;5128769;28;20119;-70
2022/06/05 16:54:07;;;;;;;3.38;2.95;;;20.30;65.80;;;;;;5089423;28;20385;-69
2022/06/05 17:00:14;;;;;;;2.80;2.50;;;20.30;65.80;;;;;;5109587;27;20304;-70
2022/06/05 17:03:03;;;;;;;3.10;2.75;;;20.30;65.70;;;;;;5108722;28;20122;-70
2022/06/05 17:08:13;;;;;;;2.80;2.42;;;20.20;65.70;;;;;;5130255;27;20432;-70
2022/06/05 17:15:59;;;;;;;3.47;2.42;;;20.20;65.70;;;;;;5130338;27;20432;-69
2022/06/05 17:44:14;;;;;;;2.95;2.65;;;20.10;66.00;;;;;;5130206;27;20354;-70
2022/06/05 17:47:06;;;;;;;3.08;2.88;;;20.10;66.00;;;;;;5130180;27;20043;-68
2022/06/05 17:52:26;;;;;;;2.92;2.65;;;20.10;66.10;;;;;;5151020;27;20196;-69
2022/06/05 17:54:57;;;;;;;4.78;3.17;;;20.10;66.20;;;;;;5128926;28;20046;-70
2022/06/05 17:57:40;;;;;;;3.47;3.20;;;20.10;66.20;;;;;;5129229;28;20161;-70
2022/06/05 18:03:02;;;;;;;4.80;3.30;;;20.10;66.40;;;;;;5109765;27;20375;-69
2022/06/05 18:05:32;;;;;;;3.35;2.97;;;20.10;66.50;;;;;;5109686;28;20480;-69
2022/06/05 18:16:08;;;;;;;3.63;3.33;;;20.10;66.60;;;;;;5130188;27;20406;-70
2022/06/05 18:18:40;;;;;;;3.60;3.10;;;20.10;66.80;;;;;;5128882;28;20051;-69
2022/06/05 18:21:08;;;;;;;3.75;3.45;;;20.10;66.80;;;;;;5129195;28;20118;-69
2022/06/05 18:23:39;;;;;;;3.83;3.50;;;20.10;66.80;;;;;;5146497;27;20081;-69
2022/06/05 18:26:27;;;;;;;4.05;3.65;;;20.10;66.80;;;;;;5128991;27;20098;-70
2022/06/05 18:28:56;;;;;;;3.55;3.05;;;20.10;67.30;;;;;;5129180;28;20054;-69
2022/06/05 18:34:24;;;;;;;4.55;3.58;;;20.00;66.90;;;;;;5130333;27;20434;-69